Terminal Aerodrome Forecast
Issued by NWS

Home | Current Version | Previous Version | Text Only | Print | Product List | Glossary On
Versions: 1 2 3 4 5 6 7 8 9 10 11 12 13 14 15
000
FTUS43 KDTX 232327
TAFMBS
TAF
KMBS 232327Z 2400/2424 09005KT P6SM BKN250
     FM241000 22010KT P6SM SCT040 OVC120 PROB30 2410/2414 3SM -TSRA
      OVC040CB
     FM241400 22013KT 6SM -SHRA OVC040
     FM241700 22013G20KT P6SM SCT050 BKN100=

USA.gov is the U.S. government's official web portal to all federal, state and local government web resources and services.